createdAt,value
2023-05-08T00:00:04.209Z,90.34
2023-05-08T00:01:04.208Z,90.20
2023-05-08T00:02:04.210Z,91.33
2023-05-08T00:03:04.241Z,90.55
2023-05-08T00:04:04.418Z,90.75
2023-05-08T00:05:04.296Z,90.65
2023-05-08T00:06:04.166Z,91.63
2023-05-08T00:07:04.156Z,91.37
2023-05-08T00:08:04.120Z,91.47
2023-05-08T00:09:04.117Z,91.16
2023-05-08T00:10:04.104Z,91.37
2023-05-08T00:11:04.124Z,91.37
2023-05-08T00:12:04.082Z,91.27
2023-05-08T00:13:04.225Z,91.16
2023-05-08T00:14:04.054Z,91.57
2023-05-08T00:15:04.044Z,91.67
2023-05-08T00:16:04.078Z,90.85
2023-05-08T00:17:04.136Z,90.65
2023-05-08T00:18:04.105Z,91.16
2023-05-08T00:19:04.004Z,91.47
2023-05-08T00:20:04.043Z,90.75
2023-05-08T00:21:04.003Z,90.65
2023-05-08T00:22:03.971Z,90.85
2023-05-08T00:23:03.963Z,90.55
2023-05-08T00:24:03.946Z,91.67
2023-05-08T00:25:03.951Z,91.61
2023-05-08T00:26:03.937Z,91.57
2023-05-08T00:27:03.927Z,91.47
2023-05-08T00:28:03.914Z,91.47
2023-05-08T00:29:06.046Z,91.41
2023-05-08T00:30:03.897Z,91.20
2023-05-08T00:31:03.876Z,91.41
2023-05-08T00:32:03.888Z,91.00
2023-05-08T00:33:03.901Z,91.31
2023-05-08T00:34:03.849Z,92.03
2023-05-08T00:35:03.847Z,92.03
2023-05-08T00:36:03.839Z,91.93
2023-05-08T00:37:03.819Z,91.82
2023-05-08T00:38:03.794Z,91.82
2023-05-08T00:39:03.805Z,91.82
2023-05-08T00:40:03.767Z,92.03
2023-05-08T00:41:03.769Z,92.69
2023-05-08T00:42:03.767Z,92.69
2023-05-08T00:43:03.744Z,92.79
2023-05-08T00:44:03.754Z,92.69
2023-05-08T00:45:03.709Z,92.17
2023-05-08T00:46:03.787Z,92.63
2023-05-08T00:47:03.700Z,91.76
2023-05-08T00:48:03.874Z,92.27
2023-05-08T00:49:03.727Z,92.38
2023-05-08T00:50:03.650Z,92.01
2023-05-08T00:51:03.665Z,92.21
2023-05-08T00:52:03.657Z,92.52
2023-05-08T00:53:03.674Z,92.93
2023-05-08T00:54:03.615Z,93.04
2023-05-08T00:55:03.656Z,92.69
2023-05-08T00:56:03.581Z,92.73
2023-05-08T00:57:03.589Z,92.42
2023-05-08T00:58:03.598Z,92.93
2023-05-08T00:59:03.558Z,92.83
2023-05-08T01:00:03.545Z,93.04
2023-05-08T01:01:03.663Z,92.63
2023-05-08T01:02:03.541Z,92.73
2023-05-08T01:03:03.646Z,92.73
2023-05-08T01:04:03.496Z,92.63
2023-05-08T01:05:03.497Z,92.83
2023-05-08T01:06:03.475Z,93.24
2023-05-08T01:07:03.490Z,92.48
2023-05-08T01:08:03.486Z,92.52
2023-05-08T01:09:03.451Z,92.32
2023-05-08T01:10:03.435Z,92.27
2023-05-08T01:11:03.442Z,92.52
2023-05-08T01:12:03.461Z,92.42
2023-05-08T01:13:03.501Z,92.07
2023-05-08T01:14:03.409Z,91.80
2023-05-08T01:15:03.383Z,92.42
2023-05-08T01:16:03.450Z,92.32
2023-05-08T01:17:03.374Z,92.32
2023-05-08T01:18:03.394Z,92.32
2023-05-08T01:19:03.346Z,92.52
2023-05-08T01:20:03.323Z,92.32
2023-05-08T01:21:03.328Z,91.80
2023-05-08T01:22:03.297Z,92.01
2023-05-08T01:23:03.298Z,92.42
2023-05-08T01:24:03.309Z,92.16
2023-05-08T01:25:03.315Z,92.42
2023-05-08T01:26:03.284Z,93.24
2023-05-08T01:27:03.245Z,92.83
2023-05-08T01:28:03.236Z,92.73
2023-05-08T01:29:03.239Z,92.73
2023-05-08T01:30:03.255Z,93.04
2023-05-08T01:31:03.236Z,93.18
2023-05-08T01:32:03.200Z,93.59
2023-05-08T01:33:03.238Z,93.08
2023-05-08T01:34:03.267Z,93.24
2023-05-08T01:35:03.178Z,92.57
2023-05-08T01:36:03.150Z,92.77
2023-05-08T01:37:03.136Z,93.29
2023-05-08T01:38:03.118Z,93.08
2023-05-08T01:39:03.155Z,93.18
2023-05-08T01:40:03.128Z,92.87
2023-05-08T01:41:03.096Z,93.59
2023-05-08T01:42:03.095Z,93.80
2023-05-08T01:43:03.071Z,92.97
2023-05-08T01:44:03.084Z,93.08
2023-05-08T01:45:03.065Z,93.08
2023-05-08T01:46:03.024Z,92.36
2023-05-08T01:47:03.062Z,93.29
2023-05-08T01:48:03.056Z,93.08
2023-05-08T01:49:03.034Z,92.97
2023-05-08T01:50:02.989Z,92.97
2023-05-08T01:51:02.978Z,93.18
2023-05-08T01:52:02.983Z,93.18
2023-05-08T01:53:02.957Z,93.08
2023-05-08T01:54:02.959Z,93.59
2023-05-08T01:55:02.929Z,92.92
2023-05-08T01:56:02.949Z,92.92
2023-05-08T01:57:02.908Z,92.77
2023-05-08T01:58:02.992Z,92.82
2023-05-08T01:59:02.906Z,92.82
2023-05-08T02:00:02.870Z,92.82
2023-05-08T02:01:02.945Z,92.71
2023-05-08T02:02:03.155Z,93.02
2023-05-08T02:03:02.896Z,93.12
2023-05-08T02:04:02.855Z,92.67
2023-05-08T02:05:02.824Z,92.71
2023-05-08T02:06:02.809Z,92.30
2023-05-08T02:07:02.824Z,92.36
2023-05-08T02:08:02.817Z,92.36
2023-05-08T02:09:02.776Z,92.50
2023-05-08T02:10:02.760Z,91.89
2023-05-08T02:11:02.768Z,92.10
2023-05-08T02:12:02.786Z,92.10
2023-05-08T02:13:02.802Z,92.40
2023-05-08T02:14:02.777Z,93.02
2023-05-08T02:15:02.769Z,92.92
2023-05-08T02:16:02.693Z,93.12
2023-05-08T02:17:02.936Z,93.23
2023-05-08T02:18:02.761Z,93.16
2023-05-08T02:19:02.661Z,93.74
2023-05-08T02:20:02.658Z,93.64
2023-05-08T02:21:02.659Z,92.82
2023-05-08T02:22:02.662Z,93.27
2023-05-08T02:23:02.660Z,92.96
2023-05-08T02:24:02.615Z,92.86
2023-05-08T02:25:02.594Z,93.37
2023-05-08T02:26:02.601Z,93.27
2023-05-08T02:27:02.583Z,93.16
2023-05-08T02:28:02.579Z,93.16
2023-05-08T02:29:02.560Z,93.06
2023-05-08T02:30:02.543Z,92.96
2023-05-08T02:31:03.026Z,93.79
2023-05-08T02:32:02.566Z,93.48
2023-05-08T02:33:02.532Z,93.48
2023-05-08T02:34:02.513Z,93.68
2023-05-08T02:35:03.754Z,93.68
2023-05-08T02:36:02.513Z,93.27
2023-05-08T02:37:02.463Z,93.16
2023-05-08T02:38:02.457Z,93.31
2023-05-08T02:39:02.445Z,93.83
2023-05-08T02:40:02.468Z,93.21
2023-05-08T02:41:02.433Z,93.41
2023-05-08T02:42:02.413Z,93.73
2023-05-08T02:43:02.405Z,93.62
2023-05-08T02:44:02.430Z,93.31
2023-05-08T02:45:02.406Z,93.52
2023-05-08T02:46:02.388Z,93.62
2023-05-08T02:47:02.365Z,93.41
2023-05-08T02:48:02.355Z,93.52
2023-05-08T02:49:02.601Z,93.73
2023-05-08T02:50:02.347Z,93.31
2023-05-08T02:51:02.306Z,93.11
2023-05-08T02:52:02.306Z,93.93
2023-05-08T02:53:02.301Z,93.93
2023-05-08T02:54:02.515Z,94.18
2023-05-08T02:55:02.312Z,93.93
2023-05-08T02:56:02.259Z,94.24
2023-05-08T02:57:02.246Z,93.93
2023-05-08T02:58:02.236Z,94.08
2023-05-08T02:59:02.237Z,93.98
2023-05-08T03:00:02.358Z,94.49
2023-05-08T03:01:02.242Z,94.18
2023-05-08T03:02:02.213Z,94.18
2023-05-08T03:03:02.327Z,94.38
2023-05-08T03:04:02.211Z,94.28
2023-05-08T03:05:02.162Z,94.18
2023-05-08T03:06:02.145Z,94.08
2023-05-08T03:07:02.141Z,93.87
2023-05-08T03:08:02.163Z,94.13
2023-05-08T03:09:02.160Z,94.18
2023-05-08T03:10:02.106Z,94.08
2023-05-08T03:11:02.089Z,94.13
2023-05-08T03:12:02.098Z,94.13
2023-05-08T03:13:02.128Z,94.03
2023-05-08T03:14:02.065Z,94.03
2023-05-08T03:15:02.065Z,94.34
2023-05-08T03:16:02.129Z,94.34
2023-05-08T03:17:02.475Z,94.24
2023-05-08T03:18:02.060Z,94.24
2023-05-08T03:19:02.029Z,94.18
2023-05-08T03:20:02.008Z,94.18
2023-05-08T03:21:01.988Z,94.28
2023-05-08T03:22:01.994Z,94.38
2023-05-08T03:23:01.969Z,94.18
2023-05-08T03:24:01.955Z,94.28
2023-05-08T03:25:01.955Z,94.08
2023-05-08T03:26:01.923Z,93.87
2023-05-08T03:27:01.928Z,93.83
2023-05-08T03:28:01.939Z,93.87
2023-05-08T03:29:01.890Z,94.03
2023-05-08T03:30:01.877Z,94.08
2023-05-08T03:31:01.938Z,94.08
2023-05-08T03:32:01.908Z,94.08
2023-05-08T03:33:01.896Z,94.08
2023-05-08T03:34:01.841Z,94.08
2023-05-08T03:35:01.846Z,94.08
2023-05-08T03:36:01.839Z,93.87
2023-05-08T03:37:01.800Z,94.49
2023-05-08T03:38:01.790Z,94.18
2023-05-08T03:39:01.785Z,94.90
2023-05-08T03:40:01.816Z,94.70
2023-05-08T03:41:01.820Z,94.59
2023-05-08T03:42:01.761Z,94.18
2023-05-08T03:43:01.752Z,94.38
2023-05-08T03:44:01.731Z,94.38
2023-05-08T03:45:01.728Z,93.73
2023-05-08T03:46:01.720Z,93.98
2023-05-08T03:47:01.788Z,94.03
2023-05-08T03:48:01.707Z,93.87
2023-05-08T03:49:01.672Z,94.45
2023-05-08T03:50:01.799Z,94.34
2023-05-08T03:51:01.652Z,94.49
2023-05-08T03:52:01.643Z,93.98
2023-05-08T03:53:01.646Z,93.87
2023-05-08T03:54:01.621Z,94.08
2023-05-08T03:55:01.708Z,93.87
2023-05-08T03:56:01.613Z,94.08
2023-05-08T03:57:01.594Z,94.08
2023-05-08T03:58:01.594Z,94.08
2023-05-08T03:59:01.594Z,93.93
2023-05-08T04:00:01.591Z,94.38
2023-05-08T04:01:01.575Z,94.38
2023-05-08T04:02:01.575Z,94.80
2023-05-08T04:03:01.600Z,94.49
2023-05-08T04:04:01.614Z,94.38
2023-05-08T04:05:01.505Z,94.18
2023-05-08T04:06:01.526Z,94.38
2023-05-08T04:07:01.490Z,94.08
2023-05-08T04:08:01.473Z,94.59
2023-05-08T04:09:01.502Z,94.38
2023-05-08T04:10:01.460Z,94.49
2023-05-08T04:11:01.449Z,94.28
2023-05-08T04:12:01.433Z,95.10
2023-05-08T04:13:01.491Z,95.00
2023-05-08T04:14:01.424Z,94.76
2023-05-08T04:15:01.436Z,94.85
2023-05-08T04:16:01.389Z,94.38
2023-05-08T04:17:01.458Z,94.03
2023-05-08T04:18:01.460Z,93.93
2023-05-08T04:19:01.372Z,94.13
2023-05-08T04:20:01.364Z,94.13
2023-05-08T04:21:01.336Z,94.18
2023-05-08T04:22:01.322Z,94.03
2023-05-08T04:23:01.330Z,94.03
2023-05-08T04:24:01.307Z,94.03
2023-05-08T04:25:01.291Z,93.99
2023-05-08T04:26:01.269Z,94.30
2023-05-08T04:27:01.280Z,94.20
2023-05-08T04:28:01.282Z,94.20
2023-05-08T04:29:01.242Z,94.09
2023-05-08T04:30:01.230Z,94.09
2023-05-08T04:31:01.218Z,93.95
2023-05-08T04:32:01.271Z,93.99
2023-05-08T04:33:01.329Z,93.99
2023-05-08T04:34:01.184Z,93.23
2023-05-08T04:35:01.172Z,93.23
2023-05-08T04:36:01.182Z,93.54
2023-05-08T04:37:01.185Z,93.12
2023-05-08T04:38:01.148Z,93.23
2023-05-08T04:39:01.133Z,93.08
2023-05-08T04:40:01.157Z,93.49
2023-05-08T04:41:01.197Z,93.59
2023-05-08T04:42:01.137Z,93.08
2023-05-08T04:43:01.098Z,93.08
2023-05-08T04:44:01.074Z,93.55
2023-05-08T04:45:01.063Z,92.67
2023-05-08T04:46:01.101Z,92.63
2023-05-08T04:47:01.048Z,92.73
2023-05-08T04:48:01.103Z,92.01
2023-05-08T04:49:01.026Z,92.63
2023-05-08T04:50:02.701Z,92.52
2023-05-08T04:51:01.009Z,92.32
2023-05-08T04:52:01.014Z,92.38
2023-05-08T04:53:00.999Z,91.25
2023-05-08T04:54:00.972Z,90.94
2023-05-08T04:55:00.965Z,90.63
2023-05-08T04:56:01.091Z,90.22
2023-05-08T04:57:00.923Z,90.73
2023-05-08T04:58:00.914Z,90.42
2023-05-08T04:59:00.950Z,90.18
2023-05-08T05:00:00.922Z,90.42
2023-05-08T05:01:00.885Z,90.63
2023-05-08T05:02:00.966Z,90.38
2023-05-08T05:03:00.911Z,90.38
2023-05-08T05:04:00.884Z,90.59
2023-05-08T05:05:00.864Z,90.18
2023-05-08T05:06:00.848Z,90.65
2023-05-08T05:07:00.819Z,90.08
2023-05-08T05:08:00.828Z,90.03
2023-05-08T05:09:00.809Z,89.72
2023-05-08T05:10:00.797Z,90.03
2023-05-08T05:11:00.785Z,89.11
2023-05-08T05:12:00.762Z,88.66
2023-05-08T05:13:00.769Z,88.14
2023-05-08T05:14:00.764Z,88.56
2023-05-08T05:15:00.745Z,88.51
2023-05-08T05:16:00.761Z,88.21
2023-05-08T05:17:00.711Z,88.17
2023-05-08T05:18:00.767Z,87.61
2023-05-08T05:19:00.713Z,86.75
2023-05-08T05:20:00.703Z,85.72
2023-05-08T05:21:00.663Z,85.01
2023-05-08T05:22:00.649Z,84.91
2023-05-08T05:23:00.654Z,85.05
2023-05-08T05:24:00.662Z,85.60
2023-05-08T05:25:00.621Z,86.32
2023-05-08T05:26:00.601Z,86.36
2023-05-08T05:27:00.602Z,86.32
2023-05-08T05:28:00.601Z,86.98
2023-05-08T05:29:00.586Z,87.70
2023-05-08T05:30:00.566Z,87.59
2023-05-08T05:31:00.644Z,87.90
2023-05-08T05:32:00.618Z,87.38
2023-05-08T05:33:00.599Z,87.90
2023-05-08T05:34:00.514Z,87.90
2023-05-08T05:35:00.500Z,87.79
2023-05-08T05:36:00.522Z,87.85
2023-05-08T05:37:00.503Z,88.17
2023-05-08T05:38:00.512Z,88.23
2023-05-08T05:39:00.453Z,88.02
2023-05-08T05:40:00.468Z,87.30
2023-05-08T05:41:00.438Z,86.28
2023-05-08T05:42:00.446Z,86.04
2023-05-08T05:43:00.404Z,86.04
2023-05-08T05:44:00.402Z,86.10
2023-05-08T05:45:00.385Z,85.99
2023-05-08T05:46:00.376Z,85.89
2023-05-08T05:47:00.492Z,85.40
2023-05-08T05:48:00.457Z,84.65
2023-05-08T05:49:00.348Z,83.52
2023-05-08T05:50:00.357Z,81.34
2023-05-08T05:51:00.376Z,80.69
2023-05-08T05:52:00.323Z,79.93
2023-05-08T05:53:00.293Z,80.96
2023-05-08T05:54:00.284Z,81.12
2023-05-08T05:55:00.288Z,80.78
2023-05-08T05:56:00.347Z,80.37
2023-05-08T05:57:00.257Z,79.25
2023-05-08T05:58:00.247Z,79.52
2023-05-08T05:59:00.239Z,77.58
2023-05-08T06:00:00.321Z,77.98
2023-05-08T06:01:00.235Z,77.95
2023-05-08T06:02:00.293Z,78.05
2023-05-08T06:03:00.410Z,77.71
2023-05-08T06:04:00.376Z,77.91
2023-05-08T06:05:00.209Z,78.28
2023-05-08T06:06:00.178Z,77.44
2023-05-08T06:07:00.180Z,76.11
2023-05-08T06:08:00.134Z,75.50
2023-05-08T06:09:00.154Z,74.58
2023-05-08T06:10:00.174Z,74.72
2023-05-08T06:11:00.137Z,74.52
2023-05-08T06:12:00.111Z,74.65
2023-05-08T06:13:00.196Z,76.45
2023-05-08T06:14:00.114Z,76.11
2023-05-08T06:15:00.063Z,76.59
2023-05-08T06:16:00.053Z,75.30
2023-05-08T06:17:00.113Z,77.60
2023-05-08T06:18:00.142Z,74.79
2023-05-08T06:19:00.034Z,73.80
2023-05-08T06:20:00.039Z,75.54
2023-05-08T06:21:00.013Z,75.54
2023-05-08T06:22:00.010Z,75.81
2023-05-08T06:22:59.970Z,74.79
2023-05-08T06:24:00.462Z,75.20
2023-05-08T06:24:59.953Z,73.77
2023-05-08T06:25:59.936Z,74.18
2023-05-08T06:26:59.912Z,74.55
2023-05-08T06:27:59.953Z,76.01
2023-05-08T06:29:00.028Z,75.54
2023-05-08T06:29:59.889Z,77.33
2023-05-08T06:30:59.941Z,77.20
2023-05-08T06:31:59.868Z,76.75
2023-05-08T06:32:59.885Z,76.25
2023-05-08T06:33:59.859Z,76.25
2023-05-08T06:34:59.830Z,76.04
2023-05-08T06:35:59.823Z,75.40
2023-05-08T06:36:59.813Z,75.70
2023-05-08T06:37:59.822Z,75.33
2023-05-08T06:38:59.787Z,76.32
2023-05-08T06:40:10.828Z,78.26
2023-05-08T06:41:00.771Z,79.07
2023-05-08T06:41:59.802Z,79.93
2023-05-08T06:42:59.755Z,78.39
2023-05-08T06:43:59.755Z,79.04
2023-05-08T06:44:59.729Z,80.43
2023-05-08T06:45:59.747Z,80.94
2023-05-08T06:46:59.710Z,81.52
2023-05-08T06:47:59.740Z,81.21
2023-05-08T06:48:59.679Z,79.50
2023-05-08T06:49:59.676Z,79.61
2023-05-08T06:50:59.656Z,78.45
2023-05-08T06:51:59.669Z,76.82
2023-05-08T06:52:59.632Z,75.60
2023-05-08T06:53:59.627Z,76.11
2023-05-08T06:54:59.622Z,78.89
2023-05-08T06:55:59.608Z,78.95
2023-05-08T06:56:59.605Z,77.29
2023-05-08T06:57:59.567Z,75.32
2023-05-08T06:59:07.666Z,73.60
2023-05-08T07:00:00.758Z,73.50
2023-05-08T07:00:59.552Z,73.29
2023-05-08T07:01:59.570Z,72.99
2023-05-08T07:02:59.622Z,74.10
2023-05-08T07:03:59.506Z,73.29
2023-05-08T07:04:59.524Z,73.02
2023-05-08T07:05:59.503Z,73.22
2023-05-08T07:06:59.495Z,73.02
2023-05-08T07:07:59.460Z,73.22
2023-05-08T07:08:59.465Z,73.70
2023-05-08T07:09:59.454Z,73.66
2023-05-08T07:10:59.466Z,72.96
2023-05-08T07:11:59.422Z,73.29
2023-05-08T07:12:59.438Z,72.34
2023-05-08T07:13:59.411Z,73.16
2023-05-08T07:14:59.687Z,72.08
2023-05-08T07:15:59.438Z,72.31
2023-05-08T07:16:59.373Z,73.29
2023-05-08T07:17:59.369Z,72.45
2023-05-08T07:18:59.396Z,71.80
2023-05-08T07:19:59.354Z,72.61
2023-05-08T07:20:59.318Z,73.12
2023-05-08T07:21:59.323Z,71.97
2023-05-08T07:22:59.302Z,70.65
2023-05-08T07:23:59.302Z,72.08
2023-05-08T07:24:59.295Z,72.01
2023-05-08T07:25:59.274Z,71.87
2023-05-08T07:26:59.264Z,71.13
2023-05-08T07:28:01.128Z,70.32
2023-05-08T07:28:59.245Z,69.31
2023-05-08T07:29:59.217Z,68.67
2023-05-08T07:30:59.248Z,68.24
2023-05-08T07:31:59.350Z,68.27
2023-05-08T07:32:59.209Z,68.07
2023-05-08T07:33:59.182Z,66.42
2023-05-08T07:34:59.168Z,67.73
2023-05-08T07:35:59.155Z,69.04
2023-05-08T07:36:59.151Z,68.27
2023-05-08T07:37:59.138Z,68.27
2023-05-08T07:38:59.138Z,67.13
2023-05-08T07:39:59.100Z,66.63
2023-05-08T07:40:59.125Z,66.53
2023-05-08T07:41:59.103Z,65.82
2023-05-08T07:42:59.152Z,66.13
2023-05-08T07:43:59.063Z,67.57
2023-05-08T07:44:59.066Z,66.36
2023-05-08T07:45:59.039Z,66.39
2023-05-08T07:46:59.075Z,67.56
2023-05-08T07:47:59.450Z,68.30
2023-05-08T07:48:59.018Z,67.72
2023-05-08T07:49:59.003Z,69.18
2023-05-08T07:50:59.009Z,69.68
2023-05-08T07:51:59.002Z,69.14
2023-05-08T07:52:58.978Z,68.43
2023-05-08T07:53:58.959Z,69.98
2023-05-08T07:54:58.941Z,69.42
2023-05-08T07:55:58.927Z,68.37
2023-05-08T07:56:58.932Z,65.52
2023-05-08T07:57:58.900Z,67.63
2023-05-08T07:58:58.898Z,67.27
2023-05-08T07:59:58.885Z,66.33
2023-05-08T08:00:58.870Z,66.10
2023-05-08T08:01:58.900Z,63.79
2023-05-08T08:02:58.929Z,65.70
2023-05-08T08:03:59.018Z,63.62
2023-05-08T08:04:58.830Z,64.42
2023-05-08T08:05:58.820Z,65.83
2023-05-08T08:06:58.828Z,66.17
2023-05-08T08:07:58.798Z,64.03
2023-05-08T08:08:58.802Z,63.12
2023-05-08T08:09:58.769Z,64.33
2023-05-08T08:10:58.863Z,62.39
2023-05-08T08:11:58.752Z,61.51
2023-05-08T08:12:58.824Z,64.33
2023-05-08T08:13:58.723Z,64.66
2023-05-08T08:14:58.727Z,64.96
2023-05-08T08:15:58.848Z,63.62
2023-05-08T08:16:58.742Z,62.32
2023-05-08T08:17:58.714Z,62.22
2023-05-08T08:18:58.674Z,64.73
2023-05-08T08:19:58.809Z,62.32
2023-05-08T08:20:58.666Z,63.25
2023-05-08T08:21:58.645Z,63.05
2023-05-08T08:22:58.631Z,63.12
2023-05-08T08:23:58.616Z,63.93
2023-05-08T08:24:58.625Z,63.93
2023-05-08T08:25:58.590Z,63.36
2023-05-08T08:26:58.581Z,63.84
2023-05-08T08:27:58.572Z,61.66
2023-05-08T08:28:58.567Z,63.46
2023-05-08T08:30:12.111Z,62.93
2023-05-08T08:30:59.568Z,62.06
2023-05-08T08:31:58.535Z,62.16
2023-05-08T08:32:58.579Z,63.43
2023-05-08T08:33:58.528Z,61.49
2023-05-08T08:34:58.523Z,63.17
2023-05-08T08:35:58.634Z,62.06
2023-05-08T08:36:58.474Z,62.16
2023-05-08T08:37:58.463Z,63.81
2023-05-08T08:38:58.465Z,62.70
2023-05-08T08:39:58.472Z,60.65
2023-05-08T08:40:58.439Z,62.96
2023-05-08T08:41:58.425Z,61.38
2023-05-08T08:42:58.429Z,60.81
2023-05-08T08:43:58.435Z,62.42
2023-05-08T08:44:58.408Z,63.53
2023-05-08T08:45:58.404Z,62.45
2023-05-08T08:46:58.402Z,62.58
2023-05-08T08:47:58.419Z,62.07
2023-05-08T08:48:58.354Z,64.03
2023-05-08T08:49:58.355Z,61.17
2023-05-08T08:50:58.453Z,63.45
2023-05-08T08:51:58.425Z,63.02
2023-05-08T08:52:58.321Z,63.46
2023-05-08T08:53:58.295Z,63.10
2023-05-08T08:54:58.284Z,62.10
2023-05-08T08:55:58.277Z,61.44
2023-05-08T08:56:58.280Z,58.53
2023-05-08T08:57:58.263Z,58.99
2023-05-08T08:58:58.259Z,58.94
2023-05-08T08:59:58.233Z,60.42
2023-05-08T09:00:58.221Z,61.80
2023-05-08T09:01:58.235Z,60.03
2023-05-08T09:02:58.255Z,60.94
2023-05-08T09:03:58.309Z,59.81
2023-05-08T09:04:58.172Z,60.78
2023-05-08T09:05:58.164Z,58.83
2023-05-08T09:06:58.161Z,59.31
2023-05-08T09:07:58.280Z,59.13
2023-05-08T09:08:58.134Z,59.96
2023-05-08T09:09:58.115Z,59.77
2023-05-08T09:10:58.114Z,61.04
2023-05-08T09:11:58.106Z,61.54
2023-05-08T09:12:58.120Z,59.53
2023-05-08T09:13:58.092Z,60.16
2023-05-08T09:14:58.055Z,61.47
2023-05-08T09:15:58.090Z,61.84
2023-05-08T09:16:58.044Z,61.94
2023-05-08T09:17:58.057Z,60.53
2023-05-08T09:18:58.026Z,60.39
2023-05-08T09:19:58.019Z,59.65
2023-05-08T09:20:58.077Z,60.75
2023-05-08T09:21:57.982Z,62.02
2023-05-08T09:22:57.983Z,61.91
2023-05-08T09:23:58.081Z,63.53
2023-05-08T09:24:57.976Z,61.85
2023-05-08T09:25:57.955Z,62.55
2023-05-08T09:26:57.926Z,63.28
2023-05-08T09:27:57.962Z,64.89
2023-05-08T09:28:57.914Z,64.99
2023-05-08T09:29:58.013Z,64.82
2023-05-08T09:30:57.948Z,64.45
2023-05-08T09:31:57.990Z,64.05
2023-05-08T09:32:57.996Z,65.89
2023-05-08T09:33:57.854Z,66.60
2023-05-08T09:34:57.859Z,67.91
2023-05-08T09:35:57.860Z,67.60
2023-05-08T09:36:57.816Z,66.70
2023-05-08T09:37:57.812Z,66.09
2023-05-08T09:38:57.811Z,67.80
2023-05-08T09:39:57.911Z,68.04
2023-05-08T09:40:57.783Z,66.13
2023-05-08T09:41:57.766Z,66.56
2023-05-08T09:42:57.748Z,67.23
2023-05-08T09:43:58.216Z,66.22
2023-05-08T09:44:57.725Z,66.22
2023-05-08T09:45:57.742Z,65.99
2023-05-08T09:46:57.711Z,65.19
2023-05-08T09:47:57.742Z,65.09
2023-05-08T09:48:57.735Z,66.50
2023-05-08T09:49:57.698Z,66.47
2023-05-08T09:50:57.661Z,67.03
2023-05-08T09:51:57.686Z,65.42
2023-05-08T09:52:57.666Z,65.39
2023-05-08T09:53:57.648Z,66.27
2023-05-08T09:54:57.622Z,66.00
2023-05-08T09:55:57.728Z,64.47
2023-05-08T09:56:57.602Z,63.84
2023-05-08T09:57:57.635Z,62.83
2023-05-08T09:58:57.571Z,63.31
2023-05-08T09:59:57.561Z,62.87
2023-05-08T10:00:57.613Z,64.75
2023-05-08T10:01:57.543Z,62.14
2023-05-08T10:02:57.634Z,62.14
2023-05-08T10:03:57.570Z,62.24
2023-05-08T10:04:57.515Z,60.36
2023-05-08T10:05:57.496Z,60.86
2023-05-08T10:06:57.517Z,61.24
2023-05-08T10:07:57.491Z,61.14
2023-05-08T10:08:57.464Z,62.41
2023-05-08T10:09:57.453Z,61.04
2023-05-08T10:10:57.446Z,60.91
2023-05-08T10:11:57.577Z,62.01
2023-05-08T10:12:57.428Z,60.64
2023-05-08T10:13:57.420Z,61.84
2023-05-08T10:14:57.394Z,62.24
2023-05-08T10:15:57.388Z,61.91
2023-05-08T10:16:57.430Z,61.41
2023-05-08T10:17:57.432Z,60.31
2023-05-08T10:18:57.351Z,59.53
2023-05-08T10:19:57.340Z,62.34
2023-05-08T10:20:57.350Z,62.44
2023-05-08T10:21:57.332Z,61.84
2023-05-08T10:22:57.310Z,62.14
2023-05-08T10:23:57.304Z,60.03
2023-05-08T10:24:57.284Z,60.36
2023-05-08T10:25:57.296Z,63.64
2023-05-08T10:27:06.458Z,62.74
2023-05-08T10:27:58.299Z,62.94
2023-05-08T10:28:57.242Z,63.21
2023-05-08T10:29:57.239Z,62.28
2023-05-08T10:30:57.267Z,62.75
2023-05-08T10:31:57.216Z,61.85
2023-05-08T10:32:57.217Z,61.45
2023-05-08T10:33:57.188Z,60.62
2023-05-08T10:34:57.185Z,60.55
2023-05-08T10:35:57.178Z,60.14
2023-05-08T10:36:57.159Z,62.11
2023-05-08T10:37:57.144Z,61.31
2023-05-08T10:38:57.133Z,61.78
2023-05-08T10:39:57.131Z,60.78
2023-05-08T10:40:57.102Z,60.31
2023-05-08T10:41:57.096Z,61.61
2023-05-08T10:42:57.087Z,63.28
2023-05-08T10:43:57.198Z,59.65
2023-05-08T10:44:57.080Z,60.15
2023-05-08T10:45:57.093Z,59.38
2023-05-08T10:46:57.098Z,59.88
2023-05-08T10:47:57.120Z,63.06
2023-05-08T10:48:57.037Z,61.52
2023-05-08T10:49:57.027Z,59.25
2023-05-08T10:50:57.000Z,59.28
2023-05-08T10:51:56.988Z,58.98
2023-05-08T10:52:56.983Z,59.81
2023-05-08T10:53:56.988Z,59.61
2023-05-08T10:54:56.958Z,61.28
2023-05-08T10:55:56.947Z,61.08
2023-05-08T10:56:56.935Z,59.98
2023-05-08T10:57:56.921Z,59.41
2023-05-08T10:58:56.923Z,59.31
2023-05-08T10:59:56.916Z,59.91
2023-05-08T11:00:56.901Z,59.70
2023-05-08T11:01:56.897Z,59.11
2023-05-08T11:02:56.936Z,59.91
2023-05-08T11:03:57.104Z,61.51
2023-05-08T11:04:56.860Z,59.98
2023-05-08T11:05:56.845Z,59.68
2023-05-08T11:06:56.826Z,61.65
2023-05-08T11:07:56.841Z,59.72
2023-05-08T11:08:59.136Z,58.82
2023-05-08T11:09:56.789Z,58.55
2023-05-08T11:10:56.782Z,58.55
2023-05-08T11:11:56.773Z,57.95
2023-05-08T11:12:56.810Z,58.15
2023-05-08T11:13:56.746Z,58.18
2023-05-08T11:14:56.753Z,58.95
2023-05-08T11:15:56.908Z,57.37
2023-05-08T11:16:56.734Z,59.38
2023-05-08T11:17:56.881Z,59.45
2023-05-08T11:18:56.691Z,56.67
2023-05-08T11:19:56.687Z,58.45
2023-05-08T11:20:56.670Z,59.28
2023-05-08T11:21:56.681Z,58.78
2023-05-08T11:22:56.659Z,58.65
2023-05-08T11:23:56.634Z,57.45
2023-05-08T11:24:56.625Z,57.45
2023-05-08T11:25:56.624Z,55.47
2023-05-08T11:26:56.618Z,57.78
2023-05-08T11:27:56.596Z,58.58
2023-05-08T11:28:56.578Z,59.35
2023-05-08T11:29:56.563Z,56.05
2023-05-08T11:30:56.574Z,55.67
2023-05-08T11:31:56.619Z,57.80
2023-05-08T11:32:56.608Z,57.87
2023-05-08T11:33:56.518Z,57.70
2023-05-08T11:34:56.515Z,57.98
2023-05-08T11:35:56.509Z,59.08
2023-05-08T11:36:56.494Z,58.15
2023-05-08T11:37:56.471Z,57.15
2023-05-08T11:38:56.471Z,55.92
2023-05-08T11:39:56.478Z,57.22
2023-05-08T11:40:56.462Z,56.89
2023-05-08T11:41:56.433Z,55.02
2023-05-08T11:42:56.439Z,55.12
2023-05-08T11:43:56.408Z,57.39
2023-05-08T11:44:56.418Z,56.20
2023-05-08T11:45:56.392Z,54.62
2023-05-08T11:46:56.500Z,54.90
2023-05-08T11:47:56.488Z,56.89
2023-05-08T11:48:56.357Z,55.94
2023-05-08T11:49:56.355Z,56.32
2023-05-08T11:50:56.325Z,55.74
2023-05-08T11:51:56.320Z,55.27
2023-05-08T11:52:56.311Z,55.87
2023-05-08T11:53:56.323Z,57.28
2023-05-08T11:54:56.317Z,56.65
2023-05-08T11:55:56.282Z,55.85
2023-05-08T11:56:56.274Z,56.65
2023-05-08T11:57:56.252Z,56.24
2023-05-08T11:58:56.265Z,55.85
2023-05-08T11:59:56.235Z,55.44
2023-05-08T12:00:56.264Z,56.12
2023-05-08T12:02:07.688Z,58.92
2023-05-08T12:02:57.300Z,55.40
2023-05-08T12:03:56.573Z,56.89
2023-05-08T12:04:56.247Z,55.22
2023-05-08T12:05:56.173Z,58.69
2023-05-08T12:06:56.156Z,58.69
2023-05-08T12:07:56.161Z,54.85
2023-05-08T12:08:56.148Z,56.92
2023-05-08T12:09:56.159Z,59.52
2023-05-08T12:10:56.132Z,54.32
2023-05-08T12:11:56.113Z,54.94
2023-05-08T12:12:56.129Z,54.85
2023-05-08T12:13:56.084Z,55.35
2023-05-08T12:14:56.073Z,55.65
2023-05-08T12:15:56.058Z,55.72
2023-05-08T12:16:56.107Z,55.44
2023-05-08T12:17:56.088Z,55.65
2023-05-08T12:18:56.021Z,55.24
2023-05-08T12:19:56.035Z,54.57
2023-05-08T12:20:56.004Z,55.50
2023-05-08T12:21:56.011Z,55.60
2023-05-08T12:22:56.003Z,55.30
2023-05-08T12:23:55.977Z,57.07
2023-05-08T12:24:55.959Z,57.75
2023-05-08T12:25:55.949Z,55.24
2023-05-08T12:26:55.945Z,57.45
2023-05-08T12:27:55.926Z,55.05
2023-05-08T12:28:55.936Z,56.15
2023-05-08T12:29:55.907Z,55.57
2023-05-08T12:30:55.956Z,56.57
2023-05-08T12:31:55.909Z,59.05
2023-05-08T12:32:55.916Z,57.45
2023-05-08T12:33:55.872Z,57.15
2023-05-08T12:34:55.845Z,57.35
2023-05-08T12:35:56.141Z,57.17
2023-05-08T12:36:55.841Z,57.85
2023-05-08T12:37:55.818Z,56.67
2023-05-08T12:38:55.807Z,57.28
2023-05-08T12:39:55.800Z,59.95
2023-05-08T12:40:55.815Z,57.24
2023-05-08T12:41:55.779Z,56.67
2023-05-08T12:42:55.760Z,56.87
2023-05-08T12:43:55.753Z,56.87
2023-05-08T12:44:55.738Z,57.90
2023-05-08T12:45:55.762Z,58.58
2023-05-08T12:46:55.773Z,59.18
2023-05-08T12:47:55.752Z,59.08
2023-05-08T12:48:55.691Z,57.78
2023-05-08T12:49:56.036Z,57.87
2023-05-08T12:50:55.690Z,58.18
2023-05-08T12:51:55.784Z,57.30